createdAt,value
2024-05-09T00:02:25.202Z,6.03
2024-05-09T00:04:56.193Z,6.17
2024-05-09T00:07:27.039Z,6.83
2024-05-09T00:09:57.820Z,6.30
2024-05-09T00:12:28.910Z,6.57
2024-05-09T00:14:59.670Z,7.00
2024-05-09T00:17:30.870Z,7.50
2024-05-09T00:20:01.909Z,7.10
2024-05-09T00:22:32.642Z,6.27
2024-05-09T00:25:03.797Z,6.97
2024-05-09T00:27:34.548Z,7.10
2024-05-09T00:30:07.052Z,7.30
2024-05-09T00:32:38.555Z,7.40
2024-05-09T00:35:09.819Z,6.90
2024-05-09T00:37:40.631Z,6.83
2024-05-09T00:40:18.620Z,7.57
2024-05-09T00:42:57.565Z,7.50
2024-05-09T00:45:28.477Z,7.13
2024-05-09T00:47:59.761Z,6.53
2024-05-09T00:50:36.394Z,6.60
2024-05-09T00:53:10.378Z,6.77
2024-05-09T00:55:42.954Z,7.03
2024-05-09T00:58:17.325Z,6.60
2024-05-09T01:00:48.539Z,7.00
2024-05-09T01:03:20.109Z,6.87
2024-05-09T01:05:51.373Z,7.13
2024-05-09T01:08:22.578Z,6.57
2024-05-09T01:10:53.612Z,6.77
2024-05-09T01:13:24.457Z,6.33
2024-05-09T01:15:55.669Z,6.30
2024-05-09T01:18:26.720Z,6.43
2024-05-09T01:20:57.607Z,7.20
2024-05-09T01:23:28.426Z,6.73
2024-05-09T01:25:59.268Z,6.70
2024-05-09T01:28:30.239Z,6.40
2024-05-09T01:31:01.158Z,6.90
2024-05-09T01:33:32.731Z,6.67
2024-05-09T01:36:03.846Z,6.93
2024-05-09T01:38:37.816Z,7.27
2024-05-09T01:41:09.162Z,6.83
2024-05-09T01:43:40.048Z,7.73
2024-05-09T01:46:16.743Z,8.60
2024-05-09T01:48:47.735Z,8.00
2024-05-09T01:51:18.664Z,8.27
2024-05-09T01:53:49.735Z,7.57
2024-05-09T01:56:20.578Z,8.03
2024-05-09T01:58:51.641Z,8.87
2024-05-09T02:01:22.505Z,9.10
2024-05-09T02:03:53.419Z,8.47
2024-05-09T02:06:24.582Z,7.90
2024-05-09T02:08:55.432Z,8.67
2024-05-09T02:11:26.350Z,8.10
2024-05-09T02:13:57.370Z,8.10
2024-05-09T02:16:28.236Z,8.10
2024-05-09T02:19:02.347Z,7.97
2024-05-09T02:21:34.463Z,7.47
2024-05-09T02:24:05.294Z,7.33
2024-05-09T02:26:36.175Z,7.00
2024-05-09T02:29:07.058Z,7.00
2024-05-09T02:31:37.899Z,6.60
2024-05-09T02:34:08.884Z,6.07
2024-05-09T02:36:39.876Z,6.60
2024-05-09T02:39:10.843Z,7.13
2024-05-09T02:41:41.687Z,6.30
2024-05-09T02:44:12.561Z,6.20
2024-05-09T02:46:43.516Z,6.80
2024-05-09T02:49:15.997Z,6.20
2024-05-09T02:51:46.822Z,6.57
2024-05-09T02:54:17.677Z,6.77
2024-05-09T02:56:48.521Z,6.97
2024-05-09T02:59:19.370Z,6.30
2024-05-09T03:01:50.338Z,7.03
2024-05-09T03:04:21.277Z,7.23
2024-05-09T03:06:52.225Z,7.60
2024-05-09T03:09:23.038Z,7.87
2024-05-09T03:11:54.044Z,7.60
2024-05-09T03:14:25.117Z,7.17
2024-05-09T03:16:56.290Z,7.53
2024-05-09T03:19:27.446Z,8.00
2024-05-09T03:21:58.352Z,8.03
2024-05-09T03:24:29.159Z,7.87
2024-05-09T03:27:00.030Z,7.80
2024-05-09T03:29:30.944Z,7.40
2024-05-09T03:32:04.051Z,7.97
2024-05-09T03:34:35.242Z,8.07
2024-05-09T03:37:06.078Z,8.17
2024-05-09T03:39:37.610Z,8.23
2024-05-09T03:42:08.832Z,8.37
2024-05-09T03:44:39.866Z,8.03
2024-05-09T03:47:10.690Z,8.20
2024-05-09T03:49:41.665Z,7.90
2024-05-09T03:52:12.708Z,8.23
2024-05-09T03:54:49.575Z,8.77
2024-05-09T03:57:20.670Z,7.93
2024-05-09T03:59:51.534Z,8.03
2024-05-09T04:02:22.516Z,7.97
2024-05-09T04:04:53.431Z,6.80
2024-05-09T04:07:24.328Z,7.03
2024-05-09T04:09:55.099Z,7.17
2024-05-09T04:12:25.936Z,7.37
2024-05-09T04:14:56.756Z,7.33
2024-05-09T04:17:28.574Z,7.57
2024-05-09T04:19:59.754Z,5.97
2024-05-09T04:22:30.565Z,6.17
2024-05-09T04:25:01.431Z,5.50
2024-05-09T04:27:32.272Z,6.03
2024-05-09T04:30:03.715Z,5.77
2024-05-09T04:32:37.888Z,6.37
2024-05-09T04:35:09.180Z,6.03
2024-05-09T04:37:40.279Z,4.93
2024-05-09T04:40:24.035Z,4.97
2024-05-09T04:43:01.888Z,5.40
2024-05-09T04:45:32.968Z,5.20
2024-05-09T04:48:04.256Z,4.73
2024-05-09T04:50:38.311Z,5.17
2024-05-09T04:53:11.813Z,4.37
2024-05-09T04:55:43.318Z,4.67
2024-05-09T04:58:14.815Z,4.70
2024-05-09T05:00:46.712Z,4.93
2024-05-09T05:03:19.197Z,5.30
2024-05-09T05:05:50.241Z,5.63
2024-05-09T05:08:22.192Z,5.33
2024-05-09T05:10:53.239Z,4.60
2024-05-09T05:13:24.790Z,5.07
2024-05-09T05:15:58.400Z,4.70
2024-05-09T05:18:32.320Z,4.97
2024-05-09T05:21:03.310Z,5.30
2024-05-09T05:23:34.248Z,4.77
2024-05-09T05:26:05.252Z,4.83
2024-05-09T05:28:36.219Z,4.77
2024-05-09T05:31:07.049Z,4.80
2024-05-09T05:33:38.116Z,4.67
2024-05-09T05:36:09.543Z,4.33
2024-05-09T05:38:40.790Z,4.87
2024-05-09T05:41:11.604Z,4.13
2024-05-09T05:43:42.455Z,4.23
2024-05-09T05:46:13.358Z,4.13
2024-05-09T05:48:44.319Z,4.23
2024-05-09T05:51:15.535Z,3.87
2024-05-09T05:53:46.548Z,3.90
2024-05-09T05:56:17.474Z,3.83
2024-05-09T05:58:48.413Z,3.80
2024-05-09T06:01:19.349Z,4.90
2024-05-09T06:03:50.418Z,4.20
2024-05-09T06:06:21.455Z,4.17
2024-05-09T06:08:52.523Z,3.63
2024-05-09T06:11:23.617Z,3.70
2024-05-09T06:13:54.604Z,4.00
2024-05-09T06:16:25.479Z,3.77
2024-05-09T06:18:56.653Z,3.63
2024-05-09T06:21:27.702Z,3.40
2024-05-09T06:23:58.592Z,3.40
2024-05-09T06:26:29.488Z,3.57
2024-05-09T06:29:00.396Z,2.90
2024-05-09T06:31:32.083Z,3.20
2024-05-09T06:34:03.251Z,2.40
2024-05-09T06:36:34.182Z,2.40
2024-05-09T06:39:05.498Z,2.03
2024-05-09T06:41:36.416Z,2.00
2024-05-09T06:44:07.230Z,1.60
2024-05-09T06:46:40.347Z,1.77
2024-05-09T06:49:14.714Z,1.63
2024-05-09T06:51:45.948Z,1.70
2024-05-09T06:54:18.375Z,1.33
2024-05-09T06:56:49.261Z,1.90
2024-05-09T06:59:20.212Z,1.90
2024-05-09T07:01:51.297Z,2.00
2024-05-09T07:04:22.508Z,2.00
2024-05-09T07:06:53.417Z,2.10
2024-05-09T07:09:24.262Z,1.67
2024-05-09T07:11:55.122Z,1.53
2024-05-09T07:14:26.415Z,1.87
2024-05-09T07:16:57.348Z,1.60
2024-05-09T07:19:28.346Z,4.07
2024-05-09T07:21:59.979Z,20.00
2024-05-09T07:24:30.937Z,15.87
2024-05-09T07:27:01.906Z,33.07
2024-05-09T07:29:34.762Z,6.93
2024-05-09T07:32:07.334Z,1.70
2024-05-09T07:34:38.305Z,1.63
2024-05-09T07:37:12.799Z,1.80
2024-05-09T07:39:44.201Z,1.93
2024-05-09T07:42:16.079Z,1.90
2024-05-09T07:44:47.255Z,1.63
2024-05-09T07:48:29.013Z,1.67
2024-05-09T07:53:34.342Z,1.60
2024-05-09T07:55:34.738Z,1.40
2024-05-09T07:58:05.697Z,1.70
2024-05-09T08:00:36.789Z,1.50
2024-05-09T08:03:08.131Z,1.37
2024-05-09T08:05:39.316Z,1.80
2024-05-09T08:08:11.444Z,1.60
2024-05-09T08:10:42.515Z,1.47
2024-05-09T08:13:13.589Z,1.60
2024-05-09T08:15:44.733Z,1.50
2024-05-09T08:18:15.999Z,1.30
2024-05-09T08:20:47.607Z,1.90
2024-05-09T08:23:18.508Z,2.50
2024-05-09T08:25:49.445Z,1.70
2024-05-09T08:28:20.670Z,1.53
2024-05-09T08:30:51.995Z,1.60
2024-05-09T08:33:23.221Z,1.50
2024-05-09T08:35:54.314Z,1.33
2024-05-09T08:38:25.238Z,1.07
2024-05-09T08:40:57.630Z,1.03
2024-05-09T08:43:30.577Z,1.20
2024-05-09T08:46:03.549Z,0.97
2024-05-09T08:48:38.329Z,0.97
2024-05-09T08:51:10.520Z,1.20
2024-05-09T08:53:41.637Z,1.20
2024-05-09T08:56:15.628Z,1.20
2024-05-09T08:58:49.594Z,1.10
2024-05-09T09:01:22.127Z,1.03
2024-05-09T09:03:55.248Z,1.30
2024-05-09T09:06:26.597Z,1.53
2024-05-09T09:08:58.240Z,1.30
2024-05-09T09:11:29.076Z,1.20
2024-05-09T09:13:59.858Z,1.03
2024-05-09T09:16:37.971Z,1.23
2024-05-09T09:19:09.314Z,1.30
2024-05-09T09:21:40.239Z,1.30
2024-05-09T09:24:11.166Z,1.20
2024-05-09T09:26:42.120Z,1.30
2024-05-09T09:29:12.928Z,1.27
2024-05-09T09:31:43.852Z,1.30
2024-05-09T09:34:14.811Z,1.50
2024-05-09T09:36:47.165Z,1.10
2024-05-09T09:39:22.108Z,1.30
2024-05-09T09:41:53.510Z,1.30
2024-05-09T09:44:25.902Z,1.30
2024-05-09T09:47:06.447Z,1.70
2024-05-09T09:49:37.793Z,1.27
2024-05-09T09:52:11.144Z,1.10
2024-05-09T09:54:43.225Z,1.40
2024-05-09T09:57:14.074Z,1.30
2024-05-09T09:59:49.077Z,1.00
2024-05-09T10:02:20.103Z,1.00
2024-05-09T10:04:51.926Z,1.23
2024-05-09T10:07:27.685Z,1.30
2024-05-09T10:10:01.966Z,1.20
2024-05-09T10:12:34.374Z,1.17
2024-05-09T10:15:11.719Z,1.07
2024-05-09T10:17:53.991Z,1.10
2024-05-09T10:20:28.191Z,1.43
2024-05-09T10:23:03.038Z,1.33
2024-05-09T10:25:33.975Z,1.37
2024-05-09T10:28:05.906Z,1.37
2024-05-09T10:30:37.425Z,1.10
2024-05-09T10:33:15.292Z,1.23
2024-05-09T10:35:55.429Z,1.40
2024-05-09T10:38:26.422Z,1.20
2024-05-09T10:41:00.985Z,1.10
2024-05-09T10:43:32.577Z,1.40
2024-05-09T10:46:03.605Z,1.10
2024-05-09T10:48:34.730Z,1.93
2024-05-09T10:51:05.758Z,1.40
2024-05-09T10:53:47.424Z,1.40
2024-05-09T10:56:18.842Z,1.20
2024-05-09T10:58:49.697Z,1.30
2024-05-09T11:01:20.858Z,1.40
2024-05-09T11:03:52.927Z,1.40
2024-05-09T11:06:23.892Z,1.30
2024-05-09T11:08:55.187Z,1.20
2024-05-09T11:11:26.213Z,1.17
2024-05-09T11:13:57.321Z,1.20
2024-05-09T11:16:28.222Z,1.20
2024-05-09T11:19:00.815Z,1.23
2024-05-09T11:21:31.889Z,1.47
2024-05-09T11:24:02.828Z,1.70
2024-05-09T11:26:35.855Z,1.60
2024-05-09T11:29:06.693Z,1.70
2024-05-09T11:31:37.649Z,1.90
2024-05-09T11:34:08.957Z,2.43
2024-05-09T11:36:39.965Z,2.07
2024-05-09T11:39:11.845Z,1.67
2024-05-09T11:41:42.812Z,1.83
2024-05-09T11:44:13.680Z,1.63
2024-05-09T11:46:44.914Z,2.10
2024-05-09T11:49:16.054Z,1.97
2024-05-09T11:51:46.956Z,1.80
2024-05-09T11:54:20.164Z,2.10
2024-05-09T11:56:51.789Z,2.07
2024-05-09T11:59:22.687Z,2.30
2024-05-09T12:01:53.936Z,2.23
2024-05-09T12:04:25.630Z,2.30
2024-05-09T12:07:00.747Z,2.90
2024-05-09T12:09:32.151Z,2.23
2024-05-09T12:12:03.095Z,2.10
2024-05-09T12:14:34.047Z,2.93
2024-05-09T12:17:05.846Z,2.60
2024-05-09T12:19:37.333Z,2.70
2024-05-09T12:22:08.690Z,2.70
2024-05-09T12:24:39.857Z,3.00
2024-05-09T12:27:10.745Z,2.90
2024-05-09T12:29:41.596Z,3.27
2024-05-09T12:32:12.466Z,3.17
2024-05-09T12:34:43.460Z,3.30
2024-05-09T12:37:14.493Z,3.10
2024-05-09T12:39:45.538Z,3.07
2024-05-09T12:42:26.445Z,4.37
2024-05-09T12:44:59.106Z,3.90
2024-05-09T12:47:30.086Z,3.63
2024-05-09T12:50:01.384Z,3.57
2024-05-09T12:52:32.364Z,4.30
2024-05-09T12:55:03.370Z,4.07
2024-05-09T12:57:34.538Z,4.20
2024-05-09T13:00:05.854Z,4.57
2024-05-09T13:02:38.545Z,4.40
2024-05-09T13:05:10.619Z,4.43
2024-05-09T13:07:41.901Z,4.60
2024-05-09T13:10:19.737Z,4.77
2024-05-09T13:12:53.707Z,5.03
2024-05-09T13:15:25.183Z,5.07
2024-05-09T13:17:58.288Z,5.30
2024-05-09T13:20:34.573Z,5.60
2024-05-09T13:23:09.469Z,5.80
2024-05-09T13:25:41.342Z,6.53
2024-05-09T13:28:14.608Z,7.20
2024-05-09T13:30:45.557Z,7.33
2024-05-09T13:33:17.267Z,6.67
2024-05-09T13:35:50.662Z,5.73
2024-05-09T13:38:22.961Z,5.80
2024-05-09T13:40:53.970Z,5.00
2024-05-09T13:43:25.627Z,4.97
2024-05-09T13:45:57.614Z,5.03
2024-05-09T13:48:29.024Z,4.80
2024-05-09T13:51:01.067Z,4.60
2024-05-09T13:53:31.976Z,4.80
2024-05-09T13:56:03.103Z,4.43
2024-05-09T13:58:33.892Z,4.00
2024-05-09T14:01:04.843Z,4.23
2024-05-09T14:03:36.900Z,3.70
2024-05-09T14:06:12.083Z,3.70
2024-05-09T14:08:44.156Z,4.07
2024-05-09T14:11:15.057Z,3.60
2024-05-09T14:13:49.067Z,3.50
2024-05-09T14:16:19.997Z,3.83
2024-05-09T14:18:50.942Z,3.50
2024-05-09T14:21:21.859Z,4.03
2024-05-09T14:23:52.657Z,3.70
2024-05-09T14:26:26.201Z,3.73
2024-05-09T14:28:57.570Z,3.87
2024-05-09T14:31:28.763Z,3.47
2024-05-09T14:33:59.912Z,3.53
2024-05-09T14:36:30.917Z,3.57
2024-05-09T14:39:04.841Z,3.73
2024-05-09T14:41:39.122Z,3.40
2024-05-09T14:44:12.647Z,4.10
2024-05-09T14:46:44.075Z,4.37
2024-05-09T14:49:15.228Z,4.70
2024-05-09T14:51:51.227Z,4.00
2024-05-09T14:54:22.040Z,3.10
2024-05-09T14:56:59.816Z,2.90
2024-05-09T14:59:30.811Z,2.60
2024-05-09T15:02:01.852Z,2.30
2024-05-09T15:04:32.995Z,2.53
2024-05-09T15:07:04.292Z,2.37
2024-05-09T15:09:39.726Z,2.03
2024-05-09T15:12:10.685Z,3.07
2024-05-09T15:14:41.693Z,2.40
2024-05-09T15:17:12.667Z,2.47
2024-05-09T15:19:43.911Z,2.70
2024-05-09T15:22:16.570Z,2.80
2024-05-09T15:24:48.604Z,2.73
2024-05-09T15:27:20.786Z,2.63
2024-05-09T15:29:54.271Z,2.77
2024-05-09T15:32:29.527Z,2.60
2024-05-09T15:35:03.928Z,2.30
2024-05-09T15:37:35.826Z,2.47
2024-05-09T15:40:12.136Z,2.77
2024-05-09T15:42:46.046Z,2.70
2024-05-09T15:45:18.188Z,2.67
2024-05-09T15:47:49.536Z,2.23
2024-05-09T15:50:31.990Z,2.37
2024-05-09T15:53:10.321Z,3.00
2024-05-09T15:55:46.051Z,2.80
2024-05-09T15:58:18.941Z,3.67
2024-05-09T16:00:52.160Z,2.40
2024-05-09T16:03:26.459Z,2.50
2024-05-09T16:06:01.482Z,2.53
2024-05-09T16:08:34.978Z,2.47
2024-05-09T16:11:07.384Z,2.60
2024-05-09T16:13:38.898Z,2.87
2024-05-09T16:16:10.195Z,2.80
2024-05-09T16:18:45.575Z,2.53
2024-05-09T16:21:16.534Z,2.87
2024-05-09T16:23:48.604Z,2.63
2024-05-09T16:26:19.572Z,2.67
2024-05-09T16:28:50.464Z,2.57
2024-05-09T16:31:21.554Z,2.70
2024-05-09T16:33:52.519Z,2.43
2024-05-09T16:36:23.878Z,2.40
2024-05-09T16:38:54.780Z,2.60
2024-05-09T16:41:25.725Z,2.20
2024-05-09T16:43:58.529Z,1.90
2024-05-09T16:46:31.744Z,2.23
2024-05-09T16:49:04.019Z,2.07
2024-05-09T16:51:35.583Z,2.10
2024-05-09T16:54:10.553Z,11.53
2024-05-09T16:56:41.523Z,20.80
2024-05-09T16:59:12.461Z,10.50
2024-05-09T17:01:44.754Z,5.60
2024-05-09T17:04:15.839Z,2.27
2024-05-09T17:06:47.202Z,1.80
2024-05-09T17:09:20.635Z,1.93
2024-05-09T17:11:51.762Z,1.97
2024-05-09T17:14:24.101Z,1.70
2024-05-09T17:16:55.582Z,1.83
2024-05-09T17:19:26.597Z,1.70
2024-05-09T17:21:57.511Z,1.60
2024-05-09T17:24:29.512Z,1.73
2024-05-09T17:27:01.971Z,1.97
2024-05-09T17:29:33.584Z,1.90
2024-05-09T17:32:06.240Z,1.87
2024-05-09T17:34:37.827Z,1.60
2024-05-09T17:37:10.051Z,1.70
2024-05-09T17:39:43.567Z,1.70
2024-05-09T17:42:16.134Z,1.67
2024-05-09T17:44:49.961Z,2.27
2024-05-09T17:47:28.048Z,1.60
2024-05-09T17:49:59.111Z,1.60
2024-05-09T17:52:30.144Z,2.10
2024-05-09T17:55:04.127Z,2.00
2024-05-09T17:57:38.150Z,1.90
2024-05-09T18:00:11.891Z,1.90
2024-05-09T18:02:46.197Z,1.60
2024-05-09T18:05:17.551Z,2.00
2024-05-09T18:07:48.733Z,1.50
2024-05-09T18:10:25.752Z,1.53
2024-05-09T18:13:06.363Z,1.67
2024-05-09T18:15:41.264Z,1.80
2024-05-09T18:18:13.664Z,1.60
2024-05-09T18:20:48.407Z,1.87
2024-05-09T18:23:20.909Z,1.93
2024-05-09T18:25:54.887Z,1.60
2024-05-09T18:28:28.620Z,1.97
2024-05-09T18:31:02.951Z,1.30
2024-05-09T18:33:34.698Z,1.50
2024-05-09T18:36:06.843Z,1.63
2024-05-09T18:38:40.916Z,1.50
2024-05-09T18:41:14.896Z,1.40
2024-05-09T18:43:50.203Z,1.50
2024-05-09T18:46:23.969Z,1.63
2024-05-09T18:48:59.173Z,1.50
2024-05-09T18:51:30.764Z,1.63
2024-05-09T18:54:04.141Z,1.50
2024-05-09T18:56:55.241Z,1.63
2024-05-09T18:59:27.503Z,1.50
2024-05-09T19:01:59.845Z,1.30
2024-05-09T19:04:32.396Z,1.50
2024-05-09T19:07:05.680Z,1.63
2024-05-09T19:09:36.966Z,1.47
2024-05-09T19:12:10.990Z,1.80
2024-05-09T19:14:43.745Z,1.80
2024-05-09T19:17:16.658Z,1.80
2024-05-09T19:19:52.496Z,1.73
2024-05-09T19:22:26.672Z,1.60
2024-05-09T19:24:59.238Z,1.67
2024-05-09T19:27:34.750Z,1.57
2024-05-09T19:30:11.924Z,1.50
2024-05-09T19:32:48.996Z,1.50
2024-05-09T19:35:22.557Z,1.20
2024-05-09T19:37:54.843Z,1.53
2024-05-09T19:40:32.055Z,1.70
2024-05-09T19:43:09.421Z,1.70
2024-05-09T19:45:40.585Z,1.70
2024-05-09T19:48:13.147Z,1.40
2024-05-09T19:50:45.175Z,1.40
2024-05-09T19:53:17.541Z,1.70
2024-05-09T19:55:49.314Z,2.00
2024-05-09T19:58:21.143Z,1.60
2024-05-09T20:00:52.859Z,1.90
2024-05-09T20:03:25.065Z,1.80
2024-05-09T20:05:57.116Z,1.87
2024-05-09T20:08:28.773Z,1.83
2024-05-09T20:11:00.352Z,1.90
2024-05-09T20:13:33.680Z,1.90
2024-05-09T20:16:04.973Z,1.80
2024-05-09T20:18:39.644Z,2.10
2024-05-09T20:21:11.875Z,2.10
2024-05-09T20:23:42.999Z,2.30
2024-05-09T20:26:16.846Z,2.60
2024-05-09T20:28:58.719Z,2.30
2024-05-09T20:31:34.005Z,2.53
2024-05-09T20:34:07.761Z,2.63
2024-05-09T20:36:38.868Z,2.70
2024-05-09T20:39:14.972Z,2.80
2024-05-09T20:41:48.981Z,3.10
2024-05-09T20:44:20.313Z,3.13
2024-05-09T20:46:52.171Z,2.93
2024-05-09T20:49:24.086Z,3.20
2024-05-09T20:51:55.311Z,2.80
2024-05-09T20:54:29.394Z,2.30
2024-05-09T20:57:01.063Z,2.00
2024-05-09T20:59:32.036Z,2.10
2024-05-09T21:02:03.613Z,2.00
2024-05-09T21:04:34.801Z,2.13
2024-05-09T21:07:06.678Z,1.77
2024-05-09T21:09:37.704Z,1.93
2024-05-09T21:12:09.007Z,1.73
2024-05-09T21:14:39.908Z,1.73
2024-05-09T21:17:10.840Z,1.47
2024-05-09T21:19:41.768Z,1.83
2024-05-09T21:22:12.698Z,1.90
2024-05-09T21:24:44.923Z,1.83
2024-05-09T21:27:15.774Z,1.80
2024-05-09T21:29:46.558Z,2.10
2024-05-09T21:32:17.336Z,2.00
2024-05-09T21:34:48.253Z,1.77
2024-05-09T21:37:19.048Z,1.97
2024-05-09T21:39:52.751Z,1.97
2024-05-09T21:42:23.639Z,2.33
2024-05-09T21:44:54.358Z,1.83
2024-05-09T21:47:25.384Z,2.13
2024-05-09T21:49:56.640Z,2.00
2024-05-09T21:52:27.554Z,2.00
2024-05-09T21:54:58.331Z,2.00
2024-05-09T21:57:29.103Z,2.13
2024-05-09T21:59:59.800Z,2.20
2024-05-09T22:02:30.883Z,2.07
2024-05-09T22:05:01.988Z,1.90
2024-05-09T22:07:32.973Z,2.00
2024-05-09T22:10:05.120Z,2.10
2024-05-09T22:12:38.741Z,1.93
2024-05-09T22:15:09.975Z,2.07
2024-05-09T22:17:43.615Z,1.80
2024-05-09T22:20:21.928Z,1.77
2024-05-09T22:22:59.151Z,1.80
2024-05-09T22:25:31.154Z,1.73
2024-05-09T22:28:03.292Z,1.90
2024-05-09T22:30:39.135Z,1.83
2024-05-09T22:33:12.763Z,1.77
2024-05-09T22:35:44.045Z,1.77
2024-05-09T22:38:14.823Z,1.80
2024-05-09T22:40:48.846Z,2.20
2024-05-09T22:43:25.252Z,2.00
2024-05-09T22:45:59.198Z,2.00
2024-05-09T22:48:29.995Z,2.00
2024-05-09T22:51:00.827Z,2.27
2024-05-09T22:53:31.625Z,1.87
2024-05-09T22:56:02.416Z,2.20
2024-05-09T22:58:33.168Z,2.00
2024-05-09T23:01:04.025Z,2.23
2024-05-09T23:03:35.915Z,2.30
2024-05-09T23:06:10.054Z,2.03
2024-05-09T23:08:40.805Z,1.90
2024-05-09T23:11:11.717Z,2.30
2024-05-09T23:13:42.481Z,2.23
2024-05-09T23:16:14.110Z,2.40
2024-05-09T23:18:45.029Z,2.53
2024-05-09T23:21:15.862Z,3.30
2024-05-09T23:23:46.554Z,2.63
2024-05-09T23:26:17.351Z,2.87
2024-05-09T23:28:48.150Z,2.60
2024-05-09T23:31:18.953Z,2.77
2024-05-09T23:33:50.213Z,2.70
2024-05-09T23:36:21.052Z,2.20
2024-05-09T23:38:51.750Z,2.03
2024-05-09T23:41:25.815Z,2.30
2024-05-09T23:43:56.520Z,2.40
2024-05-09T23:46:29.305Z,2.17
2024-05-09T23:49:00.185Z,2.50
2024-05-09T23:51:30.978Z,2.23
2024-05-09T23:54:01.670Z,2.20
2024-05-09T23:56:32.470Z,2.23
2024-05-09T23:59:03.193Z,2.40
